createdAt,value
2023-04-21T00:00:14.167Z,1014.55
2023-04-21T00:01:14.153Z,1014.51
2023-04-21T00:02:14.244Z,1014.52
2023-04-21T00:03:14.304Z,1014.49
2023-04-21T00:04:14.347Z,1014.49
2023-04-21T00:05:14.447Z,1014.52
2023-04-21T00:06:14.224Z,1014.49
2023-04-21T00:07:14.234Z,1014.44
2023-04-21T00:08:14.254Z,1014.50
2023-04-21T00:09:14.267Z,1014.47
2023-04-21T00:10:14.292Z,1014.52
2023-04-21T00:11:14.296Z,1014.51
2023-04-21T00:12:14.312Z,1014.54
2023-04-21T00:13:14.348Z,1014.52
2023-04-21T00:14:14.338Z,1014.50
2023-04-21T00:15:14.353Z,1014.53
2023-04-21T00:16:14.399Z,1014.46
2023-04-21T00:17:14.383Z,1014.51
2023-04-21T00:18:14.409Z,1014.48
2023-04-21T00:19:14.411Z,1014.52
2023-04-21T00:20:14.430Z,1014.52
2023-04-21T00:21:14.442Z,1014.50
2023-04-21T00:22:14.455Z,1014.45
2023-04-21T00:23:14.476Z,1014.49
2023-04-21T00:24:14.487Z,1014.45
2023-04-21T00:25:14.502Z,1014.43
2023-04-21T00:26:14.528Z,1014.47
2023-04-21T00:27:14.532Z,1014.47
2023-04-21T00:28:14.542Z,1014.45
2023-04-21T00:29:14.563Z,1014.41
2023-04-21T00:30:14.578Z,1014.43
2023-04-21T00:31:14.626Z,1014.44
2023-04-21T00:32:14.616Z,1014.47
2023-04-21T00:33:14.622Z,1014.44
2023-04-21T00:34:14.637Z,1014.42
2023-04-21T00:35:14.652Z,1014.40
2023-04-21T00:36:14.672Z,1014.40
2023-04-21T00:37:14.679Z,1014.42
2023-04-21T00:38:14.688Z,1014.35
2023-04-21T00:39:14.705Z,1014.43
2023-04-21T00:40:14.734Z,1014.40
2023-04-21T00:41:14.732Z,1014.39
2023-04-21T00:42:14.749Z,1014.39
2023-04-21T00:43:14.767Z,1014.36
2023-04-21T00:44:14.776Z,1014.37
2023-04-21T00:45:14.800Z,1014.38
2023-04-21T00:46:14.850Z,1014.39
2023-04-21T00:47:14.820Z,1014.38
2023-04-21T00:48:14.839Z,1014.40
2023-04-21T00:49:14.862Z,1014.38
2023-04-21T00:50:14.870Z,1014.39
2023-04-21T00:51:14.884Z,1014.41
2023-04-21T00:52:14.894Z,1014.40
2023-04-21T00:53:14.910Z,1014.44
2023-04-21T00:54:14.922Z,1014.44
2023-04-21T00:55:14.938Z,1014.42
2023-04-21T00:56:14.950Z,1014.40
2023-04-21T00:57:14.964Z,1014.35
2023-04-21T00:58:14.980Z,1014.42
2023-04-21T00:59:14.993Z,1014.42
2023-04-21T01:00:15.011Z,1014.35
2023-04-21T01:01:15.137Z,1014.36
2023-04-21T01:02:15.137Z,1014.36
2023-04-21T01:03:15.172Z,1014.37
2023-04-21T01:04:15.089Z,1014.32
2023-04-21T01:05:15.084Z,1014.36
2023-04-21T01:06:15.111Z,1014.31
2023-04-21T01:07:15.114Z,1014.38
2023-04-21T01:08:15.141Z,1014.37
2023-04-21T01:09:15.142Z,1014.38
2023-04-21T01:10:15.158Z,1014.40
2023-04-21T01:11:15.170Z,1014.39
2023-04-21T01:12:15.185Z,1014.38
2023-04-21T01:13:15.198Z,1014.37
2023-04-21T01:14:15.213Z,1014.41
2023-04-21T01:15:15.240Z,1014.32
2023-04-21T01:16:15.290Z,1014.35
2023-04-21T01:17:15.263Z,1014.34
2023-04-21T01:18:15.346Z,1014.32
2023-04-21T01:19:15.284Z,1014.35
2023-04-21T01:20:15.301Z,1014.35
2023-04-21T01:21:15.326Z,1014.33
2023-04-21T01:22:15.371Z,1014.33
2023-04-21T01:23:15.342Z,1014.32
2023-04-21T01:24:15.355Z,1014.30
2023-04-21T01:25:15.377Z,1014.32
2023-04-21T01:26:15.384Z,1014.30
2023-04-21T01:27:15.398Z,1014.27
2023-04-21T01:28:15.411Z,1014.27
2023-04-21T01:29:15.429Z,1014.29
2023-04-21T01:30:15.444Z,1014.27
2023-04-21T01:31:15.455Z,1014.23
2023-04-21T01:32:15.514Z,1014.27
2023-04-21T01:33:15.551Z,1014.21
2023-04-21T01:34:15.498Z,1014.23
2023-04-21T01:35:15.513Z,1014.21
2023-04-21T01:36:15.530Z,1014.24
2023-04-21T01:37:15.541Z,1014.20
2023-04-21T01:38:17.632Z,1014.24
2023-04-21T01:39:15.572Z,1014.17
2023-04-21T01:40:15.588Z,1014.20
2023-04-21T01:41:15.598Z,1014.15
2023-04-21T01:42:15.619Z,1014.20
2023-04-21T01:43:15.625Z,1014.19
2023-04-21T01:44:15.643Z,1014.21
2023-04-21T01:45:15.659Z,1014.18
2023-04-21T01:46:15.700Z,1014.17
2023-04-21T01:47:15.688Z,1014.17
2023-04-21T01:48:15.760Z,1014.17
2023-04-21T01:49:15.728Z,1014.15
2023-04-21T01:50:15.723Z,1014.19
2023-04-21T01:51:15.741Z,1014.16
2023-04-21T01:52:15.758Z,1014.15
2023-04-21T01:53:15.775Z,1014.13
2023-04-21T01:54:15.789Z,1014.11
2023-04-21T01:55:15.798Z,1014.11
2023-04-21T01:56:15.818Z,1014.08
2023-04-21T01:57:15.878Z,1014.11
2023-04-21T01:58:15.836Z,1014.07
2023-04-21T01:59:15.858Z,1014.08
2023-04-21T02:00:15.866Z,1014.09
2023-04-21T02:01:15.897Z,1014.06
2023-04-21T02:02:15.969Z,1014.08
2023-04-21T02:03:16.027Z,1014.05
2023-04-21T02:04:16.147Z,1014.05
2023-04-21T02:05:15.939Z,1014.05
2023-04-21T02:06:15.949Z,1014.05
2023-04-21T02:07:15.962Z,1014.05
2023-04-21T02:08:15.980Z,1014.03
2023-04-21T02:09:16.071Z,1014.05
2023-04-21T02:10:16.082Z,1014.03
2023-04-21T02:11:16.033Z,1014.02
2023-04-21T02:12:16.036Z,1014.05
2023-04-21T02:13:16.054Z,1013.99
2023-04-21T02:14:16.072Z,1014.00
2023-04-21T02:15:16.079Z,1013.99
2023-04-21T02:16:16.150Z,1014.02
2023-04-21T02:17:16.099Z,1013.93
2023-04-21T02:18:16.123Z,1013.97
2023-04-21T02:19:16.224Z,1013.94
2023-04-21T02:20:16.144Z,1013.94
2023-04-21T02:21:16.159Z,1013.98
2023-04-21T02:22:16.175Z,1013.95
2023-04-21T02:23:16.184Z,1013.95
2023-04-21T02:24:16.194Z,1013.96
2023-04-21T02:25:16.209Z,1013.96
2023-04-21T02:26:16.223Z,1013.94
2023-04-21T02:27:16.234Z,1013.92
2023-04-21T02:28:16.246Z,1013.93
2023-04-21T02:29:16.317Z,1013.94
2023-04-21T02:30:16.275Z,1013.90
2023-04-21T02:31:16.300Z,1013.94
2023-04-21T02:32:25.473Z,1013.95
2023-04-21T02:33:16.409Z,1013.92
2023-04-21T02:34:16.327Z,1013.89
2023-04-21T02:35:16.345Z,1013.91
2023-04-21T02:36:16.359Z,1013.90
2023-04-21T02:37:16.369Z,1013.89
2023-04-21T02:38:16.388Z,1013.93
2023-04-21T02:39:16.523Z,1013.89
2023-04-21T02:40:16.410Z,1013.89
2023-04-21T02:41:16.422Z,1013.90
2023-04-21T02:42:16.438Z,1013.93
2023-04-21T02:43:16.449Z,1013.95
2023-04-21T02:44:16.465Z,1013.97
2023-04-21T02:45:16.486Z,1013.88
2023-04-21T02:46:16.507Z,1013.96
2023-04-21T02:47:16.528Z,1013.95
2023-04-21T02:48:16.518Z,1013.94
2023-04-21T02:49:16.630Z,1013.96
2023-04-21T02:50:16.559Z,1013.98
2023-04-21T02:51:16.559Z,1013.97
2023-04-21T02:52:16.572Z,1013.95
2023-04-21T02:53:16.589Z,1014.02
2023-04-21T02:54:16.598Z,1014.06
2023-04-21T02:55:16.621Z,1013.94
2023-04-21T02:56:16.636Z,1013.97
2023-04-21T02:57:16.644Z,1013.99
2023-04-21T02:58:16.658Z,1013.95
2023-04-21T02:59:16.835Z,1013.97
2023-04-21T03:00:16.678Z,1013.99
2023-04-21T03:01:16.840Z,1014.01
2023-04-21T03:02:16.781Z,1013.96
2023-04-21T03:03:16.888Z,1014.00
2023-04-21T03:04:16.851Z,1013.94
2023-04-21T03:05:16.749Z,1014.03
2023-04-21T03:06:16.758Z,1013.94
2023-04-21T03:07:16.775Z,1013.95
2023-04-21T03:08:16.785Z,1013.90
2023-04-21T03:09:16.885Z,1013.94
2023-04-21T03:10:16.813Z,1013.90
2023-04-21T03:11:16.847Z,1013.90
2023-04-21T03:12:16.839Z,1013.94
2023-04-21T03:13:16.854Z,1013.92
2023-04-21T03:14:16.875Z,1013.95
2023-04-21T03:15:16.923Z,1013.92
2023-04-21T03:16:16.940Z,1013.88
2023-04-21T03:17:16.908Z,1013.89
2023-04-21T03:18:16.920Z,1013.84
2023-04-21T03:19:16.979Z,1013.87
2023-04-21T03:20:16.947Z,1013.88
2023-04-21T03:21:16.958Z,1013.86
2023-04-21T03:22:16.974Z,1013.84
2023-04-21T03:23:17.002Z,1013.86
2023-04-21T03:24:17.001Z,1013.79
2023-04-21T03:25:17.015Z,1013.85
2023-04-21T03:26:17.030Z,1013.82
2023-04-21T03:27:17.038Z,1013.84
2023-04-21T03:28:17.050Z,1013.79
2023-04-21T03:29:17.286Z,1013.81
2023-04-21T03:30:17.089Z,1013.85
2023-04-21T03:31:17.089Z,1013.86
2023-04-21T03:32:17.162Z,1013.86
2023-04-21T03:33:17.119Z,1013.84
2023-04-21T03:34:17.134Z,1013.86
2023-04-21T03:35:17.155Z,1013.87
2023-04-21T03:36:17.162Z,1013.85
2023-04-21T03:37:17.172Z,1013.83
2023-04-21T03:38:17.185Z,1013.87
2023-04-21T03:39:20.110Z,1013.83
2023-04-21T03:40:17.210Z,1013.83
2023-04-21T03:41:17.224Z,1013.88
2023-04-21T03:42:17.235Z,1013.81
2023-04-21T03:43:17.256Z,1013.83
2023-04-21T03:44:17.262Z,1013.85
2023-04-21T03:45:17.311Z,1013.81
2023-04-21T03:46:17.325Z,1013.89
2023-04-21T03:47:17.301Z,1013.88
2023-04-21T03:48:17.332Z,1013.83
2023-04-21T03:49:17.329Z,1013.87
2023-04-21T03:50:17.354Z,1013.85
2023-04-21T03:51:17.372Z,1013.89
2023-04-21T03:52:17.363Z,1013.85
2023-04-21T03:53:17.381Z,1013.92
2023-04-21T03:54:17.396Z,1013.87
2023-04-21T03:55:17.402Z,1013.89
2023-04-21T03:56:17.424Z,1013.90
2023-04-21T03:57:17.434Z,1013.91
2023-04-21T03:58:17.473Z,1013.89
2023-04-21T03:59:17.705Z,1013.89
2023-04-21T04:00:17.471Z,1013.89
2023-04-21T04:01:17.494Z,1013.87
2023-04-21T04:02:17.559Z,1013.87
2023-04-21T04:03:18.315Z,1013.92
2023-04-21T04:04:17.719Z,1013.93
2023-04-21T04:05:17.576Z,1013.92
2023-04-21T04:06:17.553Z,1013.96
2023-04-21T04:07:17.614Z,1013.94
2023-04-21T04:08:17.574Z,1013.93
2023-04-21T04:09:17.736Z,1013.93
2023-04-21T04:10:17.607Z,1013.96
2023-04-21T04:11:17.612Z,1013.95
2023-04-21T04:12:17.622Z,1013.94
2023-04-21T04:13:17.640Z,1013.96
2023-04-21T04:14:17.660Z,1013.95
2023-04-21T04:15:17.664Z,1013.96
2023-04-21T04:16:17.697Z,1013.97
2023-04-21T04:17:17.695Z,1013.94
2023-04-21T04:18:17.704Z,1013.98
2023-04-21T04:19:17.994Z,1013.94
2023-04-21T04:20:17.730Z,1013.96
2023-04-21T04:21:17.744Z,1013.99
2023-04-21T04:22:17.761Z,1013.96
2023-04-21T04:23:17.771Z,1014.02
2023-04-21T04:24:17.781Z,1014.00
2023-04-21T04:25:17.819Z,1014.00
2023-04-21T04:26:17.812Z,1014.06
2023-04-21T04:27:17.817Z,1014.06
2023-04-21T04:28:17.835Z,1014.07
2023-04-21T04:29:18.133Z,1014.11
2023-04-21T04:30:17.862Z,1014.03
2023-04-21T04:31:17.901Z,1014.07
2023-04-21T04:32:17.968Z,1014.09
2023-04-21T04:33:17.911Z,1014.02
2023-04-21T04:34:17.968Z,1014.07
2023-04-21T04:35:17.945Z,1014.05
2023-04-21T04:36:17.950Z,1014.02
2023-04-21T04:37:17.960Z,1014.06
2023-04-21T04:38:17.970Z,1014.08
2023-04-21T04:39:18.162Z,1014.10
2023-04-21T04:40:17.995Z,1014.08
2023-04-21T04:41:18.001Z,1014.15
2023-04-21T04:42:18.015Z,1014.12
2023-04-21T04:43:18.025Z,1014.12
2023-04-21T04:44:18.362Z,1014.12
2023-04-21T04:45:18.052Z,1014.13
2023-04-21T04:46:18.077Z,1014.10
2023-04-21T04:47:18.127Z,1014.10
2023-04-21T04:48:18.094Z,1014.10
2023-04-21T04:49:18.105Z,1014.20
2023-04-21T04:50:18.121Z,1014.17
2023-04-21T04:51:18.142Z,1014.16
2023-04-21T04:52:18.152Z,1014.15
2023-04-21T04:53:18.159Z,1014.13
2023-04-21T04:54:18.407Z,1014.16
2023-04-21T04:55:18.179Z,1014.16
2023-04-21T04:56:18.196Z,1014.22
2023-04-21T04:57:18.225Z,1014.18
2023-04-21T04:58:18.227Z,1014.19
2023-04-21T04:59:18.239Z,1014.16
2023-04-21T05:00:18.256Z,1014.19
2023-04-21T05:01:18.401Z,1014.22
2023-04-21T05:02:18.316Z,1014.22
2023-04-21T05:03:18.507Z,1014.17
2023-04-21T05:04:18.525Z,1014.20
2023-04-21T05:05:18.321Z,1014.21
2023-04-21T05:06:18.333Z,1014.26
2023-04-21T05:07:18.353Z,1014.21
2023-04-21T05:08:18.409Z,1014.18
2023-04-21T05:09:18.372Z,1014.21
2023-04-21T05:10:18.384Z,1014.23
2023-04-21T05:11:18.397Z,1014.23
2023-04-21T05:12:18.421Z,1014.28
2023-04-21T05:13:18.425Z,1014.20
2023-04-21T05:14:18.671Z,1014.25
2023-04-21T05:15:18.454Z,1014.19
2023-04-21T05:16:18.491Z,1014.20
2023-04-21T05:17:18.489Z,1014.24
2023-04-21T05:18:18.491Z,1014.16
2023-04-21T05:19:18.819Z,1014.28
2023-04-21T05:20:18.519Z,1014.22
2023-04-21T05:21:18.532Z,1014.25
2023-04-21T05:22:18.571Z,1014.27
2023-04-21T05:23:18.557Z,1014.26
2023-04-21T05:24:18.790Z,1014.25
2023-04-21T05:25:18.585Z,1014.33
2023-04-21T05:26:18.598Z,1014.31
2023-04-21T05:27:18.641Z,1014.33
2023-04-21T05:28:18.625Z,1014.29
2023-04-21T05:29:18.639Z,1014.27
2023-04-21T05:30:18.660Z,1014.26
2023-04-21T05:31:18.667Z,1014.28
2023-04-21T05:32:18.835Z,1014.25
2023-04-21T05:33:18.783Z,1014.16
2023-04-21T05:34:18.965Z,1014.22
2023-04-21T05:35:18.728Z,1014.25
2023-04-21T05:36:18.744Z,1014.28
2023-04-21T05:37:18.749Z,1014.28
2023-04-21T05:38:18.763Z,1014.32
2023-04-21T05:39:18.774Z,1014.26
2023-04-21T05:40:18.789Z,1014.27
2023-04-21T05:41:18.812Z,1014.32
2023-04-21T05:42:18.836Z,1014.31
2023-04-21T05:43:18.833Z,1014.31
2023-04-21T05:44:19.060Z,1014.31
2023-04-21T05:45:18.859Z,1014.33
2023-04-21T05:46:18.973Z,1014.34
2023-04-21T05:47:18.883Z,1014.34
2023-04-21T05:48:18.963Z,1014.30
2023-04-21T05:49:18.914Z,1014.31
2023-04-21T05:50:18.934Z,1014.30
2023-04-21T05:51:18.950Z,1014.28
2023-04-21T05:52:18.957Z,1014.31
2023-04-21T05:53:18.982Z,1014.28
2023-04-21T05:54:19.163Z,1014.31
2023-04-21T05:55:19.004Z,1014.31
2023-04-21T05:56:19.013Z,1014.28
2023-04-21T05:57:19.027Z,1014.32
2023-04-21T05:58:19.040Z,1014.25
2023-04-21T05:59:19.053Z,1014.34
2023-04-21T06:00:19.064Z,1014.37
2023-04-21T06:01:19.088Z,1014.31
2023-04-21T06:02:19.145Z,1014.30
2023-04-21T06:03:19.265Z,1014.36
2023-04-21T06:04:19.590Z,1014.37
2023-04-21T06:05:19.168Z,1014.37
2023-04-21T06:06:19.158Z,1014.40
2023-04-21T06:07:19.168Z,1014.32
2023-04-21T06:08:19.182Z,1014.33
2023-04-21T06:09:19.202Z,1014.31
2023-04-21T06:10:19.214Z,1014.31
2023-04-21T06:11:19.225Z,1014.23
2023-04-21T06:12:19.241Z,1014.29
2023-04-21T06:13:19.260Z,1014.28
2023-04-21T06:14:19.505Z,1014.24
2023-04-21T06:15:19.283Z,1014.24
2023-04-21T06:16:19.354Z,1014.22
2023-04-21T06:17:19.318Z,1014.22
2023-04-21T06:18:19.328Z,1014.22
2023-04-21T06:19:19.346Z,1014.21
2023-04-21T06:20:19.361Z,1014.23
2023-04-21T06:21:19.382Z,1014.23
2023-04-21T06:22:19.390Z,1014.23
2023-04-21T06:23:19.434Z,1014.21
2023-04-21T06:24:19.643Z,1014.25
2023-04-21T06:25:19.446Z,1014.16
2023-04-21T06:26:19.456Z,1014.17
2023-04-21T06:27:19.472Z,1014.18
2023-04-21T06:28:19.485Z,1014.15
2023-04-21T06:29:19.516Z,1014.16
2023-04-21T06:30:19.516Z,1014.14
2023-04-21T06:31:19.587Z,1014.14
2023-04-21T06:32:19.552Z,1014.13
2023-04-21T06:33:19.584Z,1014.12
2023-04-21T06:34:19.902Z,1014.06
2023-04-21T06:35:19.619Z,1014.09
2023-04-21T06:36:19.622Z,1014.12
2023-04-21T06:37:19.639Z,1014.12
2023-04-21T06:38:19.665Z,1014.08
2023-04-21T06:39:19.675Z,1014.10
2023-04-21T06:40:19.704Z,1014.10
2023-04-21T06:41:19.711Z,1014.10
2023-04-21T06:42:19.728Z,1014.08
2023-04-21T06:43:19.745Z,1014.04
2023-04-21T06:44:19.904Z,1014.05
2023-04-21T06:45:19.782Z,1014.09
2023-04-21T06:46:19.830Z,1014.04
2023-04-21T06:47:19.876Z,1014.07
2023-04-21T06:48:19.846Z,1014.04
2023-04-21T06:49:20.242Z,1014.09
2023-04-21T06:50:19.879Z,1014.05
2023-04-21T06:51:19.901Z,1014.04
2023-04-21T06:52:20.319Z,1014.08
2023-04-21T06:53:19.934Z,1014.08
2023-04-21T06:54:19.955Z,1014.07
2023-04-21T06:55:19.975Z,1014.08
2023-04-21T06:56:19.992Z,1014.06
2023-04-21T06:57:20.017Z,1014.03
2023-04-21T06:58:21.333Z,1014.03
2023-04-21T06:59:20.473Z,1014.00
2023-04-21T07:00:20.071Z,1014.04
2023-04-21T07:01:20.125Z,1014.02
2023-04-21T07:02:20.160Z,1014.01
2023-04-21T07:03:20.271Z,1014.03
2023-04-21T07:04:20.195Z,1014.07
2023-04-21T07:05:20.187Z,1014.02
2023-04-21T07:06:20.209Z,1014.04
2023-04-21T07:07:20.217Z,1014.08
2023-04-21T07:08:20.238Z,1014.04
2023-04-21T07:09:20.438Z,1014.08
2023-04-21T07:10:20.282Z,1014.09
2023-04-21T07:11:20.302Z,1014.04
2023-04-21T07:12:20.323Z,1014.07
2023-04-21T07:13:20.355Z,1014.08
2023-04-21T07:14:20.367Z,1014.05
2023-04-21T07:15:20.394Z,1014.05
2023-04-21T07:16:20.456Z,1014.06
2023-04-21T07:17:20.432Z,1014.03
2023-04-21T07:18:20.454Z,1014.05
2023-04-21T07:19:20.746Z,1014.04
2023-04-21T07:20:20.502Z,1014.03
2023-04-21T07:21:20.516Z,1014.03
2023-04-21T07:22:20.539Z,1014.02
2023-04-21T07:23:20.562Z,1014.05
2023-04-21T07:24:20.578Z,1014.02
2023-04-21T07:25:20.612Z,1014.04
2023-04-21T07:26:20.624Z,1014.07
2023-04-21T07:27:20.641Z,1014.06
2023-04-21T07:28:20.667Z,1014.02
2023-04-21T07:29:20.899Z,1013.97
2023-04-21T07:30:20.707Z,1014.05
2023-04-21T07:31:20.787Z,1013.98
2023-04-21T07:32:20.784Z,1013.92
2023-04-21T07:33:20.770Z,1013.93
2023-04-21T07:34:20.798Z,1013.91
2023-04-21T07:35:20.821Z,1013.94
2023-04-21T07:36:20.942Z,1013.96
2023-04-21T07:37:20.863Z,1013.96
2023-04-21T07:38:20.887Z,1013.92
2023-04-21T07:39:21.242Z,1013.95
2023-04-21T07:40:20.934Z,1013.92
2023-04-21T07:41:20.958Z,1013.96
2023-04-21T07:42:20.969Z,1013.97
2023-04-21T07:43:20.993Z,1013.92
2023-04-21T07:44:21.019Z,1013.97
2023-04-21T07:45:21.046Z,1013.96
2023-04-21T07:46:21.092Z,1013.88
2023-04-21T07:47:21.081Z,1013.92
2023-04-21T07:48:21.103Z,1013.88
2023-04-21T07:49:21.362Z,1013.89
2023-04-21T07:50:21.154Z,1013.89
2023-04-21T07:51:21.217Z,1013.86
2023-04-21T07:52:21.201Z,1013.87
2023-04-21T07:53:21.216Z,1013.86
2023-04-21T07:54:21.247Z,1013.90
2023-04-21T07:55:21.263Z,1013.89
2023-04-21T07:56:21.286Z,1013.84
2023-04-21T07:57:21.316Z,1013.89
2023-04-21T07:58:21.346Z,1013.91
2023-04-21T07:59:21.460Z,1013.91
2023-04-21T08:00:21.384Z,1013.92
2023-04-21T08:01:21.513Z,1013.88
2023-04-21T08:02:21.527Z,1013.86
2023-04-21T08:03:24.270Z,1013.80
2023-04-21T08:04:21.745Z,1013.82
2023-04-21T08:05:21.576Z,1013.82
2023-04-21T08:06:21.666Z,1013.83
2023-04-21T08:07:21.731Z,1013.93
2023-04-21T08:08:21.566Z,1013.85
2023-04-21T08:09:21.816Z,1013.88
2023-04-21T08:10:21.616Z,1013.86
2023-04-21T08:11:21.636Z,1013.86
2023-04-21T08:12:21.689Z,1013.84
2023-04-21T08:13:21.682Z,1013.88
2023-04-21T08:14:21.865Z,1013.85
2023-04-21T08:15:21.733Z,1013.86
2023-04-21T08:16:21.844Z,1013.85
2023-04-21T08:17:21.787Z,1013.82
2023-04-21T08:18:22.645Z,1013.82
2023-04-21T08:19:21.980Z,1013.85
2023-04-21T08:20:21.836Z,1013.82
2023-04-21T08:21:21.853Z,1013.85
2023-04-21T08:22:21.922Z,1013.85
2023-04-21T08:23:22.027Z,1013.78
2023-04-21T08:24:22.102Z,1013.85
2023-04-21T08:25:21.932Z,1013.88
2023-04-21T08:26:21.959Z,1013.88
2023-04-21T08:27:21.975Z,1013.88
2023-04-21T08:28:21.992Z,1013.85
2023-04-21T08:29:22.012Z,1013.82
2023-04-21T08:30:22.036Z,1013.81
2023-04-21T08:31:22.147Z,1013.84
2023-04-21T08:32:22.078Z,1013.77
2023-04-21T08:33:22.136Z,1013.75
2023-04-21T08:34:23.614Z,1013.77
2023-04-21T08:35:22.150Z,1013.77
2023-04-21T08:36:28.926Z,1013.76
2023-04-21T08:37:22.182Z,1013.74
2023-04-21T08:38:22.196Z,1013.79
2023-04-21T08:39:22.421Z,1013.75
2023-04-21T08:40:22.308Z,1013.76
2023-04-21T08:41:22.263Z,1013.76
2023-04-21T08:42:22.276Z,1013.72
2023-04-21T08:43:22.297Z,1013.79
2023-04-21T08:44:22.394Z,1013.68
2023-04-21T08:45:22.339Z,1013.73
2023-04-21T08:46:22.750Z,1013.71
2023-04-21T08:47:22.425Z,1013.68
2023-04-21T08:48:22.397Z,1013.67
2023-04-21T08:49:22.508Z,1013.69
2023-04-21T08:50:22.463Z,1013.71
2023-04-21T08:51:22.469Z,1013.71
2023-04-21T08:52:22.491Z,1013.63
2023-04-21T08:53:22.496Z,1013.68
2023-04-21T08:54:22.527Z,1013.70
2023-04-21T08:55:22.535Z,1013.65
2023-04-21T08:56:22.556Z,1013.75
2023-04-21T08:57:22.575Z,1013.68
2023-04-21T08:58:22.603Z,1013.65
2023-04-21T08:59:22.737Z,1013.71
2023-04-21T09:00:22.670Z,1013.68
2023-04-21T09:01:22.803Z,1013.67
2023-04-21T09:02:22.792Z,1013.65
2023-04-21T09:03:25.943Z,1013.68
2023-04-21T09:04:22.952Z,1013.68
2023-04-21T09:05:22.980Z,1013.69
2023-04-21T09:06:22.931Z,1013.66
2023-04-21T09:07:22.773Z,1013.63
2023-04-21T09:08:22.792Z,1013.65
2023-04-21T09:09:22.816Z,1013.72
2023-04-21T09:10:22.841Z,1013.71
2023-04-21T09:11:22.856Z,1013.70
2023-04-21T09:12:22.874Z,1013.70
2023-04-21T09:13:22.894Z,1013.69
2023-04-21T09:14:22.912Z,1013.65
2023-04-21T09:15:22.945Z,1013.68
2023-04-21T09:16:23.059Z,1013.66
2023-04-21T09:17:23.028Z,1013.68
2023-04-21T09:18:22.991Z,1013.68
2023-04-21T09:19:23.012Z,1013.67
2023-04-21T09:20:23.046Z,1013.66
2023-04-21T09:21:23.060Z,1013.64
2023-04-21T09:22:23.073Z,1013.65
2023-04-21T09:23:23.095Z,1013.70
2023-04-21T09:24:23.116Z,1013.63
2023-04-21T09:25:23.150Z,1013.60
2023-04-21T09:26:23.362Z,1013.66
2023-04-21T09:27:23.244Z,1013.64
2023-04-21T09:28:23.195Z,1013.69
2023-04-21T09:29:23.212Z,1013.60
2023-04-21T09:30:23.231Z,1013.61
2023-04-21T09:31:23.307Z,1013.63
2023-04-21T09:32:23.334Z,1013.57
2023-04-21T09:33:30.723Z,1013.56
2023-04-21T09:34:23.313Z,1013.50
2023-04-21T09:35:23.341Z,1013.55
2023-04-21T09:36:23.350Z,1013.58
2023-04-21T09:37:23.378Z,1013.60
2023-04-21T09:38:23.413Z,1013.63
2023-04-21T09:39:38.264Z,1013.58
2023-04-21T09:40:23.436Z,1013.57
2023-04-21T09:41:23.458Z,1013.57
2023-04-21T09:42:23.480Z,1013.56
2023-04-21T09:43:23.494Z,1013.53
2023-04-21T09:44:23.886Z,1013.53
2023-04-21T09:45:32.882Z,1013.51
2023-04-21T09:46:23.602Z,1013.53
2023-04-21T09:47:23.635Z,1013.51
2023-04-21T09:48:23.598Z,1013.53
2023-04-21T09:49:23.617Z,1013.52
2023-04-21T09:50:54.430Z,1013.47
2023-04-21T09:51:32.736Z,1013.50
2023-04-21T09:52:23.684Z,1013.58
2023-04-21T09:53:23.702Z,1013.47
2023-04-21T09:55:23.749Z,1013.47
2023-04-21T09:56:23.775Z,1013.48
2023-04-21T09:57:23.783Z,1013.45
2023-04-21T09:58:23.800Z,1013.43
2023-04-21T09:59:23.887Z,1013.47
2023-04-21T10:00:23.840Z,1013.47
2023-04-21T10:01:23.873Z,1013.46
2023-04-21T10:02:24.172Z,1013.41
2023-04-21T10:03:23.965Z,1013.36
2023-04-21T10:04:24.348Z,1013.40
2023-04-21T10:05:24.002Z,1013.42
2023-04-21T10:06:23.963Z,1013.39
2023-04-21T10:07:23.988Z,1013.40
2023-04-21T10:08:24.009Z,1013.42
2023-04-21T10:09:24.034Z,1013.40
2023-04-21T10:10:24.055Z,1013.42
2023-04-21T10:11:24.070Z,1013.37
2023-04-21T10:12:24.093Z,1013.34
2023-04-21T10:13:24.111Z,1013.45
2023-04-21T10:14:24.138Z,1013.45
2023-04-21T10:15:24.162Z,1013.39
2023-04-21T10:16:24.201Z,1013.39
2023-04-21T10:17:24.220Z,1013.34
2023-04-21T10:18:24.223Z,1013.42
2023-04-21T10:19:24.249Z,1013.32
2023-04-21T10:20:24.275Z,1013.34
2023-04-21T10:21:24.321Z,1013.26
2023-04-21T10:22:24.319Z,1013.26
2023-04-21T10:23:24.347Z,1013.25
2023-04-21T10:24:24.368Z,1013.28
2023-04-21T10:25:24.390Z,1013.25
2023-04-21T10:26:24.414Z,1013.30
2023-04-21T10:27:24.438Z,1013.22
2023-04-21T10:28:24.466Z,1013.20
2023-04-21T10:29:24.488Z,1013.27
2023-04-21T10:30:24.546Z,1013.27
2023-04-21T10:31:24.574Z,1013.27
2023-04-21T10:32:24.573Z,1013.31
2023-04-21T10:33:24.587Z,1013.30
2023-04-21T10:34:24.616Z,1013.25
2023-04-21T10:35:24.651Z,1013.24
2023-04-21T10:36:24.667Z,1013.14
2023-04-21T10:37:24.696Z,1013.16
2023-04-21T10:38:24.729Z,1013.19
2023-04-21T10:39:24.750Z,1013.17
2023-04-21T10:40:36.379Z,1013.17
2023-04-21T10:41:24.803Z,1013.15
2023-04-21T10:42:24.828Z,1013.09
2023-04-21T10:43:24.858Z,1013.05
2023-04-21T10:44:24.884Z,1013.05
2023-04-21T10:45:24.914Z,1013.06
2023-04-21T10:46:24.985Z,1013.06
2023-04-21T10:47:25.043Z,1013.06
2023-04-21T10:48:25.001Z,1013.05
2023-04-21T10:49:25.031Z,1013.07
2023-04-21T10:50:25.245Z,1012.97
2023-04-21T10:51:25.089Z,1013.03
2023-04-21T10:52:25.123Z,1013.13
2023-04-21T10:53:25.150Z,1013.04
2023-04-21T10:54:25.187Z,1012.99
2023-04-21T10:55:25.224Z,1013.02
2023-04-21T10:56:25.241Z,1012.95
2023-04-21T10:57:25.272Z,1012.96
2023-04-21T10:58:25.301Z,1012.96
2023-04-21T10:59:25.333Z,1012.90
2023-04-21T11:00:25.365Z,1012.89
2023-04-21T11:01:25.427Z,1012.95
2023-04-21T11:02:25.535Z,1012.94
2023-04-21T11:03:25.691Z,1012.88
2023-04-21T11:04:26.195Z,1012.85
2023-04-21T11:05:25.519Z,1012.87
2023-04-21T11:06:25.546Z,1012.85
2023-04-21T11:07:25.584Z,1012.78
2023-04-21T11:08:25.612Z,1012.89
2023-04-21T11:09:25.660Z,1012.86
2023-04-21T11:10:25.674Z,1012.77
2023-04-21T11:11:25.715Z,1012.77
2023-04-21T11:12:25.743Z,1012.73
2023-04-21T11:13:25.764Z,1012.76
2023-04-21T11:14:25.797Z,1012.74
2023-04-21T11:15:25.832Z,1012.80
2023-04-21T11:16:25.893Z,1012.71
2023-04-21T11:17:25.918Z,1012.74
2023-04-21T11:18:25.932Z,1012.69
2023-04-21T11:19:25.959Z,1012.72
2023-04-21T11:20:25.991Z,1012.48
2023-04-21T11:21:26.025Z,1012.58
2023-04-21T11:22:26.065Z,1012.77
2023-04-21T11:23:26.087Z,1012.85
2023-04-21T11:24:26.119Z,1012.75
2023-04-21T11:25:26.148Z,1012.71
2023-04-21T11:26:26.191Z,1012.66
2023-04-21T11:27:26.212Z,1012.55
2023-04-21T11:28:26.242Z,1012.63
2023-04-21T11:29:26.269Z,1012.76
2023-04-21T11:30:26.309Z,1012.82
2023-04-21T11:31:26.367Z,1012.60
2023-04-21T11:32:26.366Z,1012.71
2023-04-21T11:33:26.399Z,1012.70
2023-04-21T11:34:26.438Z,1012.52
2023-04-21T11:35:26.458Z,1012.77
2023-04-21T11:36:26.490Z,1012.63
2023-04-21T11:37:26.525Z,1012.74
2023-04-21T11:38:26.572Z,1012.67
2023-04-21T11:39:26.590Z,1012.52
2023-04-21T11:40:26.612Z,1012.52
2023-04-21T11:41:26.644Z,1012.62
2023-04-21T11:42:26.672Z,1012.56
2023-04-21T11:43:26.710Z,1012.58
2023-04-21T11:44:26.739Z,1012.50
2023-04-21T11:45:26.768Z,1012.52
2023-04-21T11:46:26.891Z,1012.54
2023-04-21T11:47:27.051Z,1012.58
2023-04-21T11:48:26.862Z,1012.55
2023-04-21T11:49:26.893Z,1012.57
2023-04-21T11:50:26.929Z,1012.67
2023-04-21T11:51:26.954Z,1012.48
2023-04-21T11:52:26.989Z,1012.53
2023-04-21T11:53:27.018Z,1012.54
2023-04-21T11:54:27.051Z,1012.40
2023-04-21T11:55:27.078Z,1012.41
2023-04-21T11:56:27.111Z,1012.46
2023-04-21T11:57:27.137Z,1012.52
2023-04-21T11:58:27.185Z,1012.54
2023-04-21T11:59:27.201Z,1012.50
2023-04-21T12:00:27.234Z,1012.47
2023-04-21T12:01:27.276Z,1012.44
2023-04-21T12:02:27.422Z,1012.45
2023-04-21T12:03:27.491Z,1012.45
2023-04-21T12:04:27.516Z,1012.41
2023-04-21T12:05:27.400Z,1012.37
2023-04-21T12:06:27.469Z,1012.41